createdAt,value
2023-09-06T00:00:34.210Z,7.57
2023-09-06T00:01:37.528Z,7.97
2023-09-06T00:02:39.923Z,7.10
2023-09-06T00:03:42.410Z,7.75
2023-09-06T00:04:45.079Z,7.75
2023-09-06T00:05:47.534Z,9.25
2023-09-06T00:06:49.981Z,8.32
2023-09-06T00:07:52.761Z,8.05
2023-09-06T00:08:55.128Z,8.45
2023-09-06T00:09:57.551Z,8.18
2023-09-06T00:11:02.577Z,8.65
2023-09-06T00:12:05.866Z,9.98
2023-09-06T00:13:08.941Z,8.45
2023-09-06T00:14:12.558Z,9.07
2023-09-06T00:15:15.604Z,10.15
2023-09-06T00:16:18.468Z,8.30
2023-09-06T00:17:20.891Z,8.15
2023-09-06T00:18:24.548Z,9.77
2023-09-06T00:19:27.090Z,8.15
2023-09-06T00:20:30.144Z,8.98
2023-09-06T00:21:33.746Z,9.77
2023-09-06T00:22:36.159Z,9.57
2023-09-06T00:23:38.520Z,8.57
2023-09-06T00:24:40.867Z,9.00
2023-09-06T00:25:43.321Z,8.23
2023-09-06T00:26:46.084Z,9.15
2023-09-06T00:27:48.575Z,9.20
2023-09-06T00:28:51.227Z,8.68
2023-09-06T00:29:53.567Z,9.68
2023-09-06T00:30:59.079Z,8.45
2023-09-06T00:32:02.007Z,8.23
2023-09-06T00:33:07.294Z,8.55
2023-09-06T00:34:09.788Z,9.52
2023-09-06T00:35:12.701Z,7.85
2023-09-06T00:36:15.090Z,8.60
2023-09-06T00:37:17.475Z,8.60
2023-09-06T00:38:22.827Z,10.18
2023-09-06T00:39:29.522Z,8.02
2023-09-06T00:40:33.104Z,7.65
2023-09-06T00:41:41.558Z,8.63
2023-09-06T00:42:47.872Z,8.85
2023-09-06T00:43:50.951Z,9.15
2023-09-06T00:44:53.351Z,7.97
2023-09-06T00:45:55.849Z,7.80
2023-09-06T00:47:00.872Z,7.35
2023-09-06T00:48:06.857Z,9.25
2023-09-06T00:49:09.399Z,7.93
2023-09-06T00:50:12.561Z,7.22
2023-09-06T00:51:14.922Z,8.32
2023-09-06T00:52:18.838Z,7.72
2023-09-06T00:53:23.397Z,7.68
2023-09-06T00:54:25.958Z,7.78
2023-09-06T00:55:28.452Z,9.23
2023-09-06T00:56:32.104Z,8.05
2023-09-06T00:57:34.517Z,7.85
2023-09-06T00:58:38.017Z,8.82
2023-09-06T00:59:41.376Z,8.50
2023-09-06T01:00:49.192Z,8.25
2023-09-06T01:01:52.046Z,7.15
2023-09-06T01:02:54.784Z,8.50
2023-09-06T01:03:58.576Z,7.47
2023-09-06T01:05:01.246Z,8.27
2023-09-06T01:06:13.572Z,7.60
2023-09-06T01:07:16.255Z,7.85
2023-09-06T01:08:29.378Z,7.20
2023-09-06T01:09:32.632Z,7.22
2023-09-06T01:10:36.049Z,7.53
2023-09-06T01:11:40.429Z,9.25
2023-09-06T01:12:42.975Z,7.68
2023-09-06T01:13:47.361Z,7.55
2023-09-06T01:14:49.865Z,8.15
2023-09-06T01:15:53.040Z,9.85
2023-09-06T01:16:57.417Z,8.70
2023-09-06T01:18:03.701Z,7.32
2023-09-06T01:19:08.120Z,7.18
2023-09-06T01:20:30.449Z,7.18
2023-09-06T01:21:40.121Z,7.93
2023-09-06T01:22:49.323Z,7.03
2023-09-06T01:23:53.054Z,7.47
2023-09-06T01:24:56.346Z,7.65
2023-09-06T01:25:58.821Z,7.80
2023-09-06T01:27:02.039Z,7.43
2023-09-06T01:28:04.919Z,8.75
2023-09-06T01:29:07.877Z,8.15
2023-09-06T01:30:10.728Z,8.38
2023-09-06T01:31:13.327Z,10.10
2023-09-06T01:32:16.406Z,8.23
2023-09-06T01:33:19.043Z,9.52
2023-09-06T01:34:21.415Z,8.05
2023-09-06T01:35:23.858Z,9.95
2023-09-06T01:36:26.850Z,8.18
2023-09-06T01:37:29.227Z,8.80
2023-09-06T01:38:34.234Z,8.23
2023-09-06T01:39:37.203Z,8.50
2023-09-06T01:40:39.667Z,8.40
2023-09-06T01:41:42.031Z,8.65
2023-09-06T01:42:45.577Z,11.02
2023-09-06T01:43:48.052Z,8.52
2023-09-06T01:44:50.715Z,9.48
2023-09-06T01:45:53.525Z,8.80
2023-09-06T01:46:57.362Z,8.70
2023-09-06T01:47:59.775Z,8.32
2023-09-06T01:49:02.200Z,8.80
2023-09-06T01:50:05.871Z,8.35
2023-09-06T01:51:09.980Z,8.13
2023-09-06T01:52:12.477Z,8.00
2023-09-06T01:53:15.975Z,8.55
2023-09-06T01:54:18.406Z,7.95
2023-09-06T01:55:21.824Z,8.23
2023-09-06T01:56:24.304Z,8.00
2023-09-06T01:57:26.813Z,8.57
2023-09-06T01:58:34.231Z,8.25
2023-09-06T01:59:37.236Z,8.80
2023-09-06T02:00:40.394Z,7.97
2023-09-06T02:01:42.982Z,8.02
2023-09-06T02:02:45.649Z,7.80
2023-09-06T02:03:48.344Z,7.93
2023-09-06T02:04:52.484Z,8.43
2023-09-06T02:05:54.834Z,8.20
2023-09-06T02:06:57.283Z,8.70
2023-09-06T02:08:00.359Z,8.00
2023-09-06T02:09:02.718Z,9.00
2023-09-06T02:10:05.587Z,8.43
2023-09-06T02:11:08.172Z,8.48
2023-09-06T02:12:10.641Z,7.75
2023-09-06T02:13:13.172Z,7.00
2023-09-06T02:14:15.654Z,7.38
2023-09-06T02:15:18.362Z,9.13
2023-09-06T02:16:21.011Z,7.72
2023-09-06T02:17:26.708Z,6.95
2023-09-06T02:18:29.441Z,7.38
2023-09-06T02:19:31.944Z,7.68
2023-09-06T02:20:34.752Z,8.30
2023-09-06T02:21:39.677Z,7.20
2023-09-06T02:22:44.964Z,7.57
2023-09-06T02:23:47.390Z,7.53
2023-09-06T02:24:49.822Z,7.10
2023-09-06T02:25:52.314Z,6.97
2023-09-06T02:26:55.385Z,7.28
2023-09-06T02:28:08.933Z,7.32
2023-09-06T02:29:12.626Z,7.07
2023-09-06T02:30:15.307Z,7.20
2023-09-06T02:31:17.782Z,7.97
2023-09-06T02:32:20.394Z,7.60
2023-09-06T02:33:22.890Z,7.65
2023-09-06T02:34:25.285Z,8.15
2023-09-06T02:35:28.537Z,7.88
2023-09-06T02:36:30.906Z,7.78
2023-09-06T02:37:33.387Z,7.45
2023-09-06T02:38:35.822Z,8.30
2023-09-06T02:39:38.453Z,7.75
2023-09-06T02:40:44.136Z,7.60
2023-09-06T02:41:48.163Z,8.68
2023-09-06T02:42:52.764Z,8.52
2023-09-06T02:43:55.211Z,7.32
2023-09-06T02:44:57.580Z,7.43
2023-09-06T02:46:04.590Z,7.32
2023-09-06T02:47:10.953Z,7.47
2023-09-06T02:48:18.341Z,8.15
2023-09-06T02:49:20.741Z,7.78
2023-09-06T02:50:25.778Z,7.55
2023-09-06T02:51:30.540Z,8.80
2023-09-06T02:52:37.159Z,8.02
2023-09-06T02:53:45.588Z,7.82
2023-09-06T02:54:48.983Z,7.45
2023-09-06T02:55:55.077Z,7.80
2023-09-06T02:56:58.718Z,8.00
2023-09-06T02:58:01.404Z,8.80
2023-09-06T02:59:04.841Z,7.90
2023-09-06T03:00:21.423Z,8.07
2023-09-06T03:01:23.833Z,7.95
2023-09-06T03:02:26.364Z,8.30
2023-09-06T03:03:29.827Z,7.28
2023-09-06T03:04:39.252Z,8.57
2023-09-06T03:05:44.920Z,8.02
2023-09-06T03:06:51.242Z,8.18
2023-09-06T03:07:55.199Z,8.05
2023-09-06T03:09:00.808Z,8.30
2023-09-06T03:10:03.750Z,9.98
2023-09-06T03:11:08.824Z,8.90
2023-09-06T03:12:15.722Z,8.15
2023-09-06T03:13:21.760Z,7.85
2023-09-06T03:14:31.611Z,7.88
2023-09-06T03:15:35.752Z,8.15
2023-09-06T03:16:43.728Z,8.10
2023-09-06T03:17:48.506Z,8.25
2023-09-06T03:18:52.648Z,9.82
2023-09-06T03:19:55.289Z,9.75
2023-09-06T03:20:57.684Z,8.60
2023-09-06T03:22:06.630Z,8.90
2023-09-06T03:23:19.709Z,8.57
2023-09-06T03:24:26.235Z,8.10
2023-09-06T03:25:30.214Z,7.78
2023-09-06T03:26:32.724Z,8.13
2023-09-06T03:27:37.415Z,7.85
2023-09-06T03:28:43.097Z,8.82
2023-09-06T03:29:54.229Z,7.90
2023-09-06T03:31:00.694Z,8.35
2023-09-06T03:32:10.600Z,8.30
2023-09-06T03:33:14.715Z,8.02
2023-09-06T03:34:17.262Z,7.97
2023-09-06T03:35:23.818Z,7.97
2023-09-06T03:36:26.317Z,10.35
2023-09-06T03:37:32.006Z,8.95
2023-09-06T03:38:36.309Z,8.95
2023-09-06T03:39:42.650Z,8.48
2023-09-06T03:40:45.809Z,8.45
2023-09-06T03:41:49.869Z,7.60
2023-09-06T03:42:58.470Z,8.05
2023-09-06T03:44:00.911Z,9.82
2023-09-06T03:45:04.550Z,8.57
2023-09-06T03:46:08.893Z,9.52
2023-09-06T03:47:17.484Z,8.10
2023-09-06T03:48:22.209Z,8.23
2023-09-06T03:50:31.620Z,7.13
2023-09-06T03:51:34.336Z,7.82
2023-09-06T03:52:37.674Z,7.78
2023-09-06T03:53:40.105Z,8.13
2023-09-06T03:54:44.932Z,7.97
2023-09-06T03:55:47.949Z,7.85
2023-09-06T03:56:51.254Z,8.02
2023-09-06T03:57:54.023Z,7.95
2023-09-06T03:58:57.270Z,7.78
2023-09-06T04:00:00.428Z,8.02
2023-09-06T04:01:05.277Z,7.72
2023-09-06T04:02:15.024Z,7.15
2023-09-06T04:03:24.388Z,7.53
2023-09-06T04:04:30.229Z,8.63
2023-09-06T04:05:33.911Z,7.85
2023-09-06T04:06:38.219Z,7.57
2023-09-06T04:07:40.732Z,7.38
2023-09-06T04:08:44.694Z,7.75
2023-09-06T04:09:47.204Z,8.70
2023-09-06T04:10:50.624Z,7.78
2023-09-06T04:11:53.619Z,7.55
2023-09-06T04:12:56.778Z,7.35
2023-09-06T04:13:59.893Z,7.55
2023-09-06T04:15:04.933Z,7.60
2023-09-06T04:16:09.002Z,7.80
2023-09-06T04:17:13.533Z,9.00
2023-09-06T04:18:16.120Z,7.15
2023-09-06T04:19:18.615Z,7.60
2023-09-06T04:20:21.137Z,7.80
2023-09-06T04:21:23.905Z,8.27
2023-09-06T04:22:26.272Z,7.63
2023-09-06T04:23:28.753Z,7.68
2023-09-06T04:24:35.343Z,7.25
2023-09-06T04:25:46.547Z,7.90
2023-09-06T04:26:52.563Z,7.50
2023-09-06T04:27:58.368Z,8.13
2023-09-06T04:29:04.204Z,7.75
2023-09-06T04:30:08.395Z,7.70
2023-09-06T04:31:11.128Z,8.75
2023-09-06T04:32:18.783Z,9.57
2023-09-06T04:33:21.405Z,8.57
2023-09-06T04:34:31.579Z,7.13
2023-09-06T04:35:46.014Z,7.60
2023-09-06T04:36:49.737Z,7.75
2023-09-06T04:37:55.437Z,7.13
2023-09-06T04:38:59.668Z,7.90
2023-09-06T04:40:04.242Z,7.63
2023-09-06T04:41:06.817Z,7.65
2023-09-06T04:42:14.930Z,7.88
2023-09-06T04:43:18.488Z,10.63
2023-09-06T04:44:26.041Z,7.75
2023-09-06T04:45:29.710Z,7.68
2023-09-06T04:46:32.294Z,7.45
2023-09-06T04:47:39.009Z,7.30
2023-09-06T04:48:41.920Z,7.25
2023-09-06T04:49:48.077Z,7.85
2023-09-06T04:50:51.734Z,7.50
2023-09-06T04:51:54.397Z,8.20
2023-09-06T04:52:58.109Z,7.47
2023-09-06T04:54:01.849Z,8.23
2023-09-06T04:55:11.771Z,7.40
2023-09-06T04:56:14.429Z,7.45
2023-09-06T04:57:23.295Z,7.78
2023-09-06T04:58:25.835Z,7.65
2023-09-06T04:59:28.789Z,8.75
2023-09-06T05:00:34.548Z,7.43
2023-09-06T05:01:36.937Z,7.70
2023-09-06T05:02:39.512Z,8.38
2023-09-06T05:03:42.196Z,7.75
2023-09-06T05:04:45.458Z,7.55
2023-09-06T05:05:48.862Z,8.10
2023-09-06T05:06:52.302Z,9.30
2023-09-06T05:07:55.119Z,7.88
2023-09-06T05:08:58.206Z,9.43
2023-09-06T05:10:02.401Z,8.70
2023-09-06T05:11:04.787Z,7.40
2023-09-06T05:12:09.309Z,7.90
2023-09-06T05:13:13.225Z,7.18
2023-09-06T05:14:18.046Z,7.35
2023-09-06T05:15:21.265Z,7.88
2023-09-06T05:16:23.805Z,7.63
2023-09-06T05:17:26.749Z,6.88
2023-09-06T05:18:30.313Z,7.38
2023-09-06T05:19:34.053Z,7.50
2023-09-06T05:20:39.429Z,7.40
2023-09-06T05:21:46.556Z,7.80
2023-09-06T05:22:48.955Z,7.60
2023-09-06T05:23:51.455Z,7.43
2023-09-06T05:24:53.890Z,9.50
2023-09-06T05:25:57.426Z,7.20
2023-09-06T05:27:07.728Z,7.35
2023-09-06T05:28:13.948Z,7.57
2023-09-06T05:29:19.932Z,7.75
2023-09-06T05:30:22.370Z,7.63
2023-09-06T05:31:25.012Z,7.18
2023-09-06T05:32:29.668Z,7.90
2023-09-06T05:33:32.643Z,9.10
2023-09-06T05:34:36.479Z,7.80
2023-09-06T05:35:42.629Z,7.45
2023-09-06T05:36:45.042Z,8.32
2023-09-06T05:37:47.494Z,7.55
2023-09-06T05:38:49.962Z,7.35
2023-09-06T05:39:54.378Z,7.18
2023-09-06T05:40:58.736Z,8.02
2023-09-06T05:42:09.090Z,8.20
2023-09-06T05:43:11.756Z,8.13
2023-09-06T05:44:15.329Z,7.82
2023-09-06T05:45:19.875Z,6.85
2023-09-06T05:46:33.237Z,7.68
2023-09-06T05:47:42.768Z,7.95
2023-09-06T05:48:45.548Z,7.05
2023-09-06T05:49:49.527Z,6.68
2023-09-06T05:50:52.241Z,7.25
2023-09-06T05:51:55.135Z,8.82
2023-09-06T05:52:57.741Z,9.35
2023-09-06T05:54:01.891Z,7.43
2023-09-06T05:55:07.020Z,6.82
2023-09-06T05:56:10.419Z,9.02
2023-09-06T05:57:12.794Z,7.47
2023-09-06T05:58:16.333Z,6.97
2023-09-06T05:59:20.696Z,6.32
2023-09-06T06:00:24.123Z,7.68
2023-09-06T06:01:29.752Z,6.85
2023-09-06T06:02:33.030Z,7.63
2023-09-06T06:03:37.624Z,6.85
2023-09-06T06:04:41.319Z,7.43
2023-09-06T06:05:44.241Z,7.38
2023-09-06T06:06:46.743Z,8.35
2023-09-06T06:07:49.215Z,7.55
2023-09-06T06:08:51.644Z,6.78
2023-09-06T06:09:54.119Z,7.45
2023-09-06T06:10:57.718Z,7.10
2023-09-06T06:12:00.232Z,6.93
2023-09-06T06:13:05.127Z,8.45
2023-09-06T06:14:10.902Z,7.63
2023-09-06T06:15:14.963Z,6.95
2023-09-06T06:16:17.569Z,7.10
2023-09-06T06:17:20.230Z,7.13
2023-09-06T06:18:26.915Z,7.43
2023-09-06T06:19:29.608Z,7.03
2023-09-06T06:20:44.095Z,7.30
2023-09-06T06:21:47.592Z,6.53
2023-09-06T06:22:50.060Z,10.65
2023-09-06T06:23:52.471Z,7.78
2023-09-06T06:24:54.946Z,8.07
2023-09-06T06:25:57.487Z,9.85
2023-09-06T06:26:59.894Z,8.10
2023-09-06T06:28:02.300Z,7.60
2023-09-06T06:29:05.440Z,7.88
2023-09-06T06:30:09.520Z,9.02
2023-09-06T06:31:12.601Z,7.75
2023-09-06T06:32:15.255Z,7.10
2023-09-06T06:33:17.732Z,8.13
2023-09-06T06:34:20.609Z,8.05
2023-09-06T06:35:23.055Z,8.05
2023-09-06T06:36:25.524Z,7.30
2023-09-06T06:37:28.413Z,7.50
2023-09-06T06:38:31.258Z,8.77
2023-09-06T06:39:33.939Z,7.40
2023-09-06T06:40:38.206Z,7.72
2023-09-06T06:41:41.707Z,7.18
2023-09-06T06:42:46.251Z,7.40
2023-09-06T06:43:48.726Z,9.73
2023-09-06T06:44:51.118Z,7.35
2023-09-06T06:45:55.431Z,7.00
2023-09-06T06:46:57.997Z,7.10
2023-09-06T06:48:00.497Z,7.07
2023-09-06T06:49:05.944Z,6.80
2023-09-06T06:50:08.712Z,7.28
2023-09-06T06:51:11.181Z,10.05
2023-09-06T06:52:13.562Z,7.05
2023-09-06T06:53:16.362Z,7.40
2023-09-06T06:54:19.270Z,7.65
2023-09-06T06:55:21.776Z,7.45
2023-09-06T06:56:24.950Z,7.00
2023-09-06T06:57:27.484Z,7.10
2023-09-06T06:58:30.012Z,6.32
2023-09-06T06:59:32.623Z,6.78
2023-09-06T07:00:38.021Z,6.97
2023-09-06T07:01:40.894Z,6.78
2023-09-06T07:02:43.273Z,6.63
2023-09-06T07:03:45.729Z,7.55
2023-09-06T07:04:48.912Z,6.32
2023-09-06T07:05:51.294Z,9.32
2023-09-06T07:06:54.758Z,7.65
2023-09-06T07:07:57.138Z,6.85
2023-09-06T07:08:59.789Z,6.25
2023-09-06T07:10:02.933Z,6.40
2023-09-06T07:11:06.422Z,6.38
2023-09-06T07:12:08.849Z,6.75
2023-09-06T07:13:11.215Z,6.07
2023-09-06T07:14:13.616Z,6.88
2023-09-06T07:15:16.137Z,7.32
2023-09-06T07:16:21.428Z,7.15
2023-09-06T07:17:24.041Z,6.47
2023-09-06T07:18:26.701Z,7.93
2023-09-06T07:19:29.173Z,5.78
2023-09-06T07:20:31.532Z,8.82
2023-09-06T07:21:34.002Z,6.05
2023-09-06T07:22:36.686Z,6.03
2023-09-06T07:23:39.611Z,5.93
2023-09-06T07:24:42.082Z,7.88
2023-09-06T07:25:48.306Z,5.75
2023-09-06T07:26:50.826Z,5.90
2023-09-06T07:27:53.286Z,10.60
2023-09-06T07:28:55.719Z,6.35
2023-09-06T07:29:58.357Z,5.88
2023-09-06T07:31:01.660Z,5.90
2023-09-06T07:32:04.711Z,6.78
2023-09-06T07:33:07.348Z,5.70
2023-09-06T07:34:10.028Z,6.55
2023-09-06T07:35:13.663Z,7.43
2023-09-06T07:36:16.194Z,5.97
2023-09-06T07:37:18.916Z,7.00
2023-09-06T07:38:21.318Z,5.32
2023-09-06T07:39:23.951Z,5.60
2023-09-06T07:40:26.362Z,6.88
2023-09-06T07:41:28.880Z,6.70
2023-09-06T07:42:31.272Z,5.72
2023-09-06T07:43:36.197Z,7.15
2023-09-06T07:44:38.766Z,5.63
2023-09-06T07:45:44.020Z,5.90
2023-09-06T07:46:50.213Z,6.10
2023-09-06T07:47:53.066Z,7.47
2023-09-06T07:48:56.344Z,7.55
2023-09-06T07:49:58.908Z,6.97
2023-09-06T07:51:01.514Z,6.13
2023-09-06T07:52:06.586Z,6.28
2023-09-06T07:53:10.869Z,7.15
2023-09-06T07:54:13.350Z,6.10
2023-09-06T07:55:15.733Z,5.32
2023-09-06T07:56:18.586Z,7.20
2023-09-06T07:57:21.096Z,7.05
2023-09-06T07:58:24.172Z,5.68
2023-09-06T07:59:27.053Z,5.53
2023-09-06T08:00:31.968Z,7.82
2023-09-06T08:01:34.519Z,7.25
2023-09-06T08:02:37.381Z,6.53
2023-09-06T08:03:39.927Z,5.50
2023-09-06T08:04:47.215Z,6.38
2023-09-06T08:05:51.586Z,7.45
2023-09-06T08:07:02.790Z,4.93
2023-09-06T08:08:10.693Z,8.85
2023-09-06T08:09:14.103Z,5.20
2023-09-06T08:10:16.707Z,6.57
2023-09-06T08:11:19.476Z,5.65
2023-09-06T08:12:21.913Z,5.53
2023-09-06T08:13:24.423Z,5.07
2023-09-06T08:14:27.341Z,6.53
2023-09-06T08:15:30.007Z,7.45
2023-09-06T08:16:33.616Z,7.43
2023-09-06T08:17:36.064Z,8.30
2023-09-06T08:18:38.523Z,5.63
2023-09-06T08:19:41.132Z,6.10
2023-09-06T08:20:43.550Z,5.25
2023-09-06T08:21:45.979Z,5.40
2023-09-06T08:22:48.476Z,5.30
2023-09-06T08:23:51.103Z,6.45
2023-09-06T08:24:53.464Z,7.65
2023-09-06T08:25:56.772Z,4.75
2023-09-06T08:26:59.776Z,5.10
2023-09-06T08:28:02.214Z,5.93
2023-09-06T08:29:06.555Z,5.00
2023-09-06T08:30:14.105Z,5.50
2023-09-06T08:31:16.785Z,6.05
2023-09-06T08:32:19.383Z,5.47
2023-09-06T08:33:22.003Z,6.00
2023-09-06T08:34:24.548Z,6.90
2023-09-06T08:35:29.174Z,5.28
2023-09-06T08:36:31.695Z,4.95
2023-09-06T08:37:37.937Z,5.38
2023-09-06T08:38:43.572Z,5.15
2023-09-06T08:39:46.141Z,5.47
2023-09-06T08:40:48.635Z,5.80
2023-09-06T08:41:53.189Z,5.30
2023-09-06T08:42:56.971Z,6.85
2023-09-06T08:44:04.909Z,5.97
2023-09-06T08:45:11.399Z,5.85
2023-09-06T08:46:25.346Z,5.38
2023-09-06T08:47:29.247Z,5.35
2023-09-06T08:48:33.519Z,5.47
2023-09-06T08:49:38.734Z,5.43
2023-09-06T08:50:41.985Z,5.22
2023-09-06T08:51:45.317Z,5.35
2023-09-06T08:52:51.881Z,5.88
2023-09-06T08:53:55.426Z,4.95
2023-09-06T08:54:57.791Z,6.13
2023-09-06T08:56:01.455Z,5.38
2023-09-06T08:57:05.109Z,5.63
2023-09-06T08:58:07.629Z,5.13
2023-09-06T08:59:10.571Z,6.20
2023-09-06T09:00:15.303Z,5.45
2023-09-06T09:01:17.785Z,5.82
2023-09-06T09:02:20.274Z,5.93
2023-09-06T09:03:22.841Z,5.70
2023-09-06T09:04:25.452Z,5.53
2023-09-06T09:05:28.026Z,5.90
2023-09-06T09:06:30.836Z,5.30
2023-09-06T09:07:33.480Z,5.35
2023-09-06T09:08:36.729Z,6.72
2023-09-06T09:10:10.047Z,4.95
2023-09-06T09:11:13.572Z,7.78
2023-09-06T09:12:16.294Z,6.93
2023-09-06T09:13:18.678Z,8.52
2023-09-06T09:14:21.634Z,5.47
2023-09-06T09:15:27.575Z,5.43
2023-09-06T09:16:30.513Z,10.23
2023-09-06T09:17:37.968Z,5.35
2023-09-06T09:18:48.977Z,5.07
2023-09-06T09:19:53.191Z,5.80
2023-09-06T09:20:58.712Z,5.32
2023-09-06T09:22:09.464Z,5.10
2023-09-06T09:23:16.175Z,5.55
2023-09-06T09:24:31.727Z,6.00
2023-09-06T09:25:34.448Z,5.18
2023-09-06T09:26:37.184Z,5.00
2023-09-06T09:27:39.577Z,5.50
2023-09-06T09:28:43.199Z,4.88
2023-09-06T09:29:46.168Z,5.28
2023-09-06T09:30:49.752Z,5.18
2023-09-06T09:31:52.218Z,6.40
2023-09-06T09:33:00.246Z,5.38
2023-09-06T09:34:02.847Z,7.13
2023-09-06T09:35:05.899Z,5.68
2023-09-06T09:36:08.658Z,6.40
2023-09-06T09:37:11.170Z,5.68
2023-09-06T09:38:13.688Z,6.97
2023-09-06T09:39:16.280Z,5.32
2023-09-06T09:40:22.530Z,4.93
2023-09-06T09:41:24.875Z,5.70
2023-09-06T09:42:28.112Z,4.88
2023-09-06T09:43:31.518Z,5.65
2023-09-06T09:44:35.037Z,5.00
2023-09-06T09:45:45.580Z,5.47
2023-09-06T09:46:48.073Z,5.15
2023-09-06T09:47:53.977Z,4.93
2023-09-06T09:49:01.315Z,5.00
2023-09-06T09:50:04.415Z,5.15
2023-09-06T09:51:09.312Z,5.25
2023-09-06T09:52:15.815Z,4.88
2023-09-06T09:53:24.584Z,5.32
2023-09-06T09:54:32.331Z,5.28
2023-09-06T09:55:40.165Z,5.55
2023-09-06T09:56:48.765Z,5.30
2023-09-06T09:57:52.802Z,5.18
2023-09-06T09:58:56.553Z,5.20
2023-09-06T09:59:59.548Z,5.05
2023-09-06T10:01:05.034Z,4.93
2023-09-06T10:02:10.589Z,5.38
2023-09-06T10:03:14.750Z,4.88
2023-09-06T10:04:17.693Z,4.95
2023-09-06T10:05:21.013Z,4.65
2023-09-06T10:06:26.230Z,5.32
2023-09-06T10:07:46.749Z,5.18
2023-09-06T10:08:54.610Z,4.60
2023-09-06T10:09:57.676Z,4.82
2023-09-06T10:11:00.353Z,4.60
2023-09-06T10:12:05.170Z,4.68
2023-09-06T10:13:11.058Z,4.57
2023-09-06T10:14:16.243Z,4.53
2023-09-06T10:15:24.860Z,4.55
2023-09-06T10:16:27.971Z,4.68
2023-09-06T10:17:31.275Z,4.95
2023-09-06T10:18:34.228Z,4.45
2023-09-06T10:19:52.391Z,4.38
2023-09-06T10:20:57.763Z,4.40
2023-09-06T10:22:02.823Z,4.10
2023-09-06T10:23:09.069Z,3.80
2023-09-06T10:24:23.925Z,6.50
2023-09-06T10:25:27.001Z,5.82
2023-09-06T10:26:35.649Z,4.50
2023-09-06T10:27:52.012Z,4.47
2023-09-06T10:29:01.952Z,3.95
2023-09-06T10:30:07.860Z,4.30
2023-09-06T10:31:13.918Z,4.53
2023-09-06T10:32:16.339Z,4.80
2023-09-06T10:33:32.613Z,4.45
2023-09-06T10:34:35.001Z,4.68
2023-09-06T10:35:46.696Z,5.28
2023-09-06T10:36:58.877Z,4.53
2023-09-06T10:38:06.054Z,4.80
2023-09-06T10:39:15.827Z,4.50
2023-09-06T10:40:20.364Z,5.13
2023-09-06T10:41:28.156Z,5.13
2023-09-06T10:42:30.688Z,5.07
2023-09-06T10:43:55.720Z,4.50
2023-09-06T10:45:00.506Z,6.35
2023-09-06T10:46:05.948Z,6.30
2023-09-06T10:47:32.357Z,4.72
2023-09-06T10:48:35.172Z,5.30
2023-09-06T10:49:37.653Z,6.15
2023-09-06T10:50:40.865Z,4.68
2023-09-06T10:52:03.067Z,4.45
2023-09-06T10:53:07.347Z,4.80
2023-09-06T10:54:10.772Z,4.60
2023-09-06T10:55:16.576Z,4.97
2023-09-06T10:56:29.428Z,4.82
2023-09-06T10:57:51.886Z,4.85
2023-09-06T10:58:57.849Z,5.90
2023-09-06T11:00:00.349Z,5.60
2023-09-06T11:01:20.022Z,4.63
2023-09-06T11:02:23.228Z,7.00
2023-09-06T11:03:33.382Z,5.03
2023-09-06T11:04:36.128Z,5.28
2023-09-06T11:05:51.679Z,4.70
2023-09-06T11:06:54.256Z,4.40
2023-09-06T11:07:56.824Z,4.10
2023-09-06T11:09:06.950Z,4.75
2023-09-06T11:10:11.061Z,4.55
2023-09-06T11:11:15.555Z,4.57
2023-09-06T11:12:18.763Z,4.10
2023-09-06T11:13:21.648Z,4.82
2023-09-06T11:14:29.601Z,6.47
2023-09-06T11:15:36.438Z,4.57
2023-09-06T11:16:47.566Z,5.82
2023-09-06T11:17:50.086Z,6.03
2023-09-06T11:18:52.549Z,4.40
2023-09-06T11:19:55.406Z,4.55
2023-09-06T11:20:57.905Z,4.45
2023-09-06T11:22:11.862Z,4.65
2023-09-06T11:23:14.250Z,4.43
2023-09-06T11:24:16.872Z,4.25
2023-09-06T11:25:24.332Z,7.15
2023-09-06T11:26:28.540Z,4.95
2023-09-06T11:27:35.173Z,4.20
2023-09-06T11:28:39.852Z,4.78
2023-09-06T11:29:42.735Z,5.15
2023-09-06T11:30:48.404Z,4.75
2023-09-06T11:31:54.240Z,4.65
2023-09-06T11:32:58.471Z,4.45
2023-09-06T11:34:05.971Z,4.00
2023-09-06T11:35:10.123Z,4.18
2023-09-06T11:36:14.255Z,4.00
2023-09-06T11:37:20.010Z,5.43
2023-09-06T11:38:26.772Z,4.18
2023-09-06T11:39:30.619Z,4.10
2023-09-06T11:40:36.243Z,6.30
2023-09-06T11:41:40.749Z,4.18
2023-09-06T11:42:46.988Z,4.10
2023-09-06T11:43:55.284Z,3.90
2023-09-06T11:44:59.579Z,4.13
2023-09-06T11:46:05.941Z,3.90
2023-09-06T11:47:09.626Z,3.90
2023-09-06T11:48:16.065Z,4.20
2023-09-06T11:49:22.902Z,4.00
2023-09-06T11:50:26.291Z,4.35
2023-09-06T11:51:30.071Z,4.10
2023-09-06T11:52:36.587Z,4.00
2023-09-06T11:53:55.728Z,4.13
2023-09-06T11:54:59.670Z,5.40
2023-09-06T11:56:02.297Z,4.43
2023-09-06T11:57:06.156Z,3.80
2023-09-06T11:58:17.755Z,4.20
2023-09-06T11:59:21.692Z,3.70
2023-09-06T12:00:38.281Z,4.32
2023-09-06T12:01:42.239Z,3.55
2023-09-06T12:02:49.193Z,3.67
2023-09-06T12:03:54.648Z,4.00
2023-09-06T12:05:02.526Z,4.63
2023-09-06T12:06:08.724Z,4.32
2023-09-06T12:07:11.179Z,3.47
2023-09-06T12:08:19.152Z,6.10
2023-09-06T12:09:22.338Z,3.60
2023-09-06T12:10:24.850Z,3.92
2023-09-06T12:11:28.776Z,3.85
2023-09-06T12:12:41.023Z,3.88
2023-09-06T12:13:43.374Z,3.70
2023-09-06T12:14:45.907Z,3.80
2023-09-06T12:15:48.908Z,4.22
2023-09-06T12:16:51.419Z,3.67
2023-09-06T12:17:53.891Z,5.70
2023-09-06T12:18:56.655Z,4.90
2023-09-06T12:20:00.408Z,3.75
2023-09-06T12:21:06.753Z,3.78
2023-09-06T12:22:09.231Z,3.47
2023-09-06T12:23:11.692Z,3.88
2023-09-06T12:24:14.179Z,4.68
2023-09-06T12:25:21.071Z,3.50
2023-09-06T12:26:23.856Z,3.70
2023-09-06T12:27:26.790Z,3.85
2023-09-06T12:28:30.760Z,3.83
2023-09-06T12:29:33.348Z,3.92
2023-09-06T12:30:35.709Z,3.70
2023-09-06T12:31:38.226Z,4.15
2023-09-06T12:32:41.718Z,3.53
2023-09-06T12:33:47.227Z,3.63
2023-09-06T12:34:50.051Z,3.78
2023-09-06T12:36:02.462Z,4.88
2023-09-06T12:37:05.034Z,3.72
2023-09-06T12:38:08.091Z,3.97
2023-09-06T12:39:10.569Z,4.45
2023-09-06T12:40:14.723Z,4.00
2023-09-06T12:41:17.273Z,3.70
2023-09-06T12:42:19.664Z,3.55
2023-09-06T12:43:22.516Z,3.65
2023-09-06T12:44:24.933Z,3.50
2023-09-06T12:45:32.847Z,3.72
2023-09-06T12:46:35.685Z,5.32
2023-09-06T12:47:38.662Z,3.50
2023-09-06T12:48:44.281Z,3.58
2023-09-06T12:49:47.287Z,3.70
2023-09-06T12:50:50.735Z,3.80
2023-09-06T12:51:53.143Z,3.60
2023-09-06T12:52:56.359Z,2.90
2023-09-06T12:53:58.935Z,3.33
2023-09-06T12:55:06.881Z,3.53
2023-09-06T12:56:13.646Z,3.58
2023-09-06T12:57:18.821Z,5.57
2023-09-06T12:58:21.285Z,3.60
2023-09-06T12:59:23.744Z,3.63
2023-09-06T13:00:27.486Z,4.30
2023-09-06T13:01:29.950Z,3.60
2023-09-06T13:02:33.649Z,3.67
2023-09-06T13:03:36.416Z,3.78
2023-09-06T13:04:38.941Z,3.72
2023-09-06T13:05:42.922Z,3.97
2023-09-06T13:06:45.421Z,3.90
2023-09-06T13:07:48.068Z,3.83
2023-09-06T13:08:51.919Z,3.67
2023-09-06T13:09:54.411Z,3.55
2023-09-06T13:10:56.859Z,3.50
2023-09-06T13:11:59.302Z,5.47
2023-09-06T13:13:01.648Z,3.83
2023-09-06T13:14:04.526Z,3.58
2023-09-06T13:15:07.469Z,4.28
2023-09-06T13:16:09.883Z,3.63
2023-09-06T13:17:12.453Z,3.97
2023-09-06T13:18:14.907Z,3.60
2023-09-06T13:19:17.527Z,4.25
2023-09-06T13:20:19.937Z,4.05
2023-09-06T13:21:22.478Z,3.65
2023-09-06T13:22:24.971Z,3.80
2023-09-06T13:23:27.492Z,4.00
2023-09-06T13:24:34.756Z,3.63
2023-09-06T13:25:37.531Z,4.00
2023-09-06T13:26:40.043Z,3.80
2023-09-06T13:27:45.294Z,3.80
2023-09-06T13:28:47.712Z,4.05
2023-09-06T13:29:50.908Z,3.70
2023-09-06T13:30:53.629Z,3.90
2023-09-06T13:31:56.220Z,3.75
2023-09-06T13:32:58.743Z,3.75
2023-09-06T13:34:03.347Z,4.13
2023-09-06T13:35:06.532Z,3.85
2023-09-06T13:36:09.010Z,4.32
2023-09-06T13:37:11.448Z,3.88
2023-09-06T13:38:13.893Z,3.88
2023-09-06T13:39:18.564Z,3.70
2023-09-06T13:40:21.303Z,3.90
2023-09-06T13:41:23.746Z,3.83
2023-09-06T13:42:26.416Z,3.92
2023-09-06T13:43:29.078Z,4.20
2023-09-06T13:44:32.611Z,3.90
2023-09-06T13:45:35.057Z,4.65
2023-09-06T13:46:37.575Z,4.28
2023-09-06T13:47:40.066Z,4.00
2023-09-06T13:48:42.679Z,6.22
2023-09-06T13:49:45.198Z,4.13
2023-09-06T13:50:47.597Z,4.25
2023-09-06T13:51:49.952Z,4.85
2023-09-06T13:52:52.872Z,4.40
2023-09-06T13:53:55.262Z,4.82
2023-09-06T13:54:57.828Z,4.40
2023-09-06T13:56:00.221Z,4.53
2023-09-06T13:57:04.815Z,5.15
2023-09-06T13:58:10.287Z,4.10
2023-09-06T13:59:12.874Z,3.97
2023-09-06T14:00:15.549Z,4.25
2023-09-06T14:01:18.109Z,3.95
2023-09-06T14:02:20.684Z,3.83
2023-09-06T14:03:24.343Z,5.20
2023-09-06T14:04:26.909Z,4.97
2023-09-06T14:05:29.478Z,5.45
2023-09-06T14:06:32.818Z,3.90
2023-09-06T14:07:35.202Z,4.22
2023-09-06T14:08:37.799Z,4.20
2023-09-06T14:09:40.416Z,4.32
2023-09-06T14:10:42.906Z,4.32
2023-09-06T14:11:45.463Z,4.82
2023-09-06T14:12:47.906Z,4.20
2023-09-06T14:13:50.522Z,4.10
2023-09-06T14:14:55.636Z,4.22
2023-09-06T14:15:58.224Z,4.40
2023-09-06T14:17:00.734Z,4.40
2023-09-06T14:18:07.698Z,4.43